sensor_id;sensor_type;location;lat;lon;timestamp;P1;durP1;ratioP1;P2;durP2;ratioP2
4903;SDS011;2467;48.142;11.616;2022-11-11T00:00:29;4.03;;;3.70;;
4903;SDS011;2467;48.142;11.616;2022-11-11T00:01:03;5.53;;;4.20;;
4903;SDS011;2467;48.142;11.616;2022-11-11T00:01:37;4.18;;;3.78;;
4903;SDS011;2467;48.142;11.616;2022-11-11T00:02:09;4.05;;;3.40;;
4903;SDS011;2467;48.142;11.616;2022-11-11T00:02:41;4.22;;;3.83;;
4903;SDS011;2467;48.142;11.616;2022-11-11T00:03:14;3.45;;;3.15;;
4903;SDS011;2467;48.142;11.616;2022-11-11T00:03:53;4.05;;;3.75;;
4903;SDS011;2467;48.142;11.616;2022-11-11T00:04:26;4.30;;;4.05;;
4903;SDS011;2467;48.142;11.616;2022-11-11T00:04:58;5.32;;;4.38;;
4903;SDS011;2467;48.142;11.616;2022-11-11T00:05:31;4.85;;;3.83;;
4903;SDS011;2467;48.142;11.616;2022-11-11T00:06:06;3.92;;;3.55;;
4903;SDS011;2467;48.142;11.616;2022-11-11T00:06:39;3.50;;;3.30;;
4903;SDS011;2467;48.142;11.616;2022-11-11T00:07:11;4.22;;;3.67;;
4903;SDS011;2467;48.142;11.616;2022-11-11T00:07:44;4.32;;;3.92;;
4903;SDS011;2467;48.142;11.616;2022-11-11T00:08:16;3.55;;;3.25;;
4903;SDS011;2467;48.142;11.616;2022-11-11T00:08:48;3.47;;;2.97;;
4903;SDS011;2467;48.142;11.616;2022-11-11T00:09:21;6.55;;;3.95;;
4903;SDS011;2467;48.142;11.616;2022-11-11T00:09:52;3.80;;;3.50;;
4903;SDS011;2467;48.142;11.616;2022-11-11T00:10:24;4.70;;;3.17;;
4903;SDS011;2467;48.142;11.616;2022-11-11T00:11:00;3.78;;;3.47;;
4903;SDS011;2467;48.142;11.616;2022-11-11T00:11:36;3.63;;;3.33;;
4903;SDS011;2467;48.142;11.616;2022-11-11T00:12:08;5.10;;;3.67;;
4903;SDS011;2467;48.142;11.616;2022-11-11T00:12:40;4.10;;;3.70;;
4903;SDS011;2467;48.142;11.616;2022-11-11T00:13:12;4.25;;;3.45;;
4903;SDS011;2467;48.142;11.616;2022-11-11T00:13:44;3.47;;;3.17;;
4903;SDS011;2467;48.142;11.616;2022-11-11T00:14:17;3.10;;;2.90;;
4903;SDS011;2467;48.142;11.616;2022-11-11T00:14:49;3.03;;;2.83;;
4903;SDS011;2467;48.142;11.616;2022-11-11T00:15:21;3.58;;;3.08;;
4903;SDS011;2467;48.142;11.616;2022-11-11T00:15:53;3.53;;;3.28;;
4903;SDS011;2467;48.142;11.616;2022-11-11T00:16:25;4.10;;;3.10;;
4903;SDS011;2467;48.142;11.616;2022-11-11T00:17:18;4.90;;;3.70;;
4903;SDS011;2467;48.142;11.616;2022-11-11T00:18:09;3.55;;;3.25;;
4903;SDS011;2467;48.142;11.616;2022-11-11T00:19:00;4.13;;;3.53;;
4903;SDS011;2467;48.142;11.616;2022-11-11T00:19:51;5.93;;;3.10;;
4903;SDS011;2467;48.142;11.616;2022-11-11T00:20:56;5.28;;;4.40;;
4903;SDS011;2467;48.142;11.616;2022-11-11T00:21:47;7.40;;;5.57;;
4903;SDS011;2467;48.142;11.616;2022-11-11T00:22:37;9.02;;;7.20;;
4903;SDS011;2467;48.142;11.616;2022-11-11T00:23:30;14.18;;;10.70;;
4903;SDS011;2467;48.142;11.616;2022-11-11T00:24:22;14.82;;;11.65;;
4903;SDS011;2467;48.142;11.616;2022-11-11T00:25:15;14.88;;;11.48;;
4903;SDS011;2467;48.142;11.616;2022-11-11T00:25:50;12.07;;;8.68;;
4903;SDS011;2467;48.142;11.616;2022-11-11T00:26:26;60.92;;;47.20;;
4903;SDS011;2467;48.142;11.616;2022-11-11T00:27:15;15.80;;;12.85;;
4903;SDS011;2467;48.142;11.616;2022-11-11T00:27:48;11.18;;;10.02;;
4903;SDS011;2467;48.142;11.616;2022-11-11T00:28:20;9.40;;;7.70;;
4903;SDS011;2467;48.142;11.616;2022-11-11T00:28:52;6.22;;;5.63;;
4903;SDS011;2467;48.142;11.616;2022-11-11T00:29:25;4.85;;;4.35;;
4903;SDS011;2467;48.142;11.616;2022-11-11T00:29:57;5.68;;;4.25;;
4903;SDS011;2467;48.142;11.616;2022-11-11T00:30:29;4.55;;;3.63;;
4903;SDS011;2467;48.142;11.616;2022-11-11T00:31:02;4.55;;;3.28;;
4903;SDS011;2467;48.142;11.616;2022-11-11T00:31:35;3.75;;;3.45;;
4903;SDS011;2467;48.142;11.616;2022-11-11T00:32:28;2.92;;;2.72;;
4903;SDS011;2467;48.142;11.616;2022-11-11T00:33:04;3.22;;;2.92;;
4903;SDS011;2467;48.142;11.616;2022-11-11T00:33:35;3.40;;;3.10;;
4903;SDS011;2467;48.142;11.616;2022-11-11T00:34:08;3.30;;;3.00;;
4903;SDS011;2467;48.142;11.616;2022-11-11T00:34:41;3.08;;;2.78;;
4903;SDS011;2467;48.142;11.616;2022-11-11T00:35:33;3.17;;;2.92;;
4903;SDS011;2467;48.142;11.616;2022-11-11T00:36:23;2.95;;;2.75;;
4903;SDS011;2467;48.142;11.616;2022-11-11T00:36:55;2.67;;;2.47;;
4903;SDS011;2467;48.142;11.616;2022-11-11T00:37:26;6.18;;;2.85;;
4903;SDS011;2467;48.142;11.616;2022-11-11T00:38:05;2.92;;;2.75;;
4903;SDS011;2467;48.142;11.616;2022-11-11T00:38:39;3.58;;;2.83;;
4903;SDS011;2467;48.142;11.616;2022-11-11T00:39:18;3.53;;;2.67;;
4903;SDS011;2467;48.142;11.616;2022-11-11T00:39:50;2.78;;;2.58;;
4903;SDS011;2467;48.142;11.616;2022-11-11T00:40:21;3.08;;;2.60;;
4903;SDS011;2467;48.142;11.616;2022-11-11T00:40:54;4.00;;;3.70;;
4903;SDS011;2467;48.142;11.616;2022-11-11T00:41:26;3.35;;;3.13;;
4903;SDS011;2467;48.142;11.616;2022-11-11T00:41:58;4.38;;;2.80;;
4903;SDS011;2467;48.142;11.616;2022-11-11T00:42:32;3.83;;;3.10;;
4903;SDS011;2467;48.142;11.616;2022-11-11T00:43:04;3.28;;;2.97;;
4903;SDS011;2467;48.142;11.616;2022-11-11T00:43:36;3.17;;;2.88;;
4903;SDS011;2467;48.142;11.616;2022-11-11T00:44:09;2.60;;;2.40;;
4903;SDS011;2467;48.142;11.616;2022-11-11T00:44:41;3.55;;;3.25;;
4903;SDS011;2467;48.142;11.616;2022-11-11T00:45:13;3.78;;;3.03;;
4903;SDS011;2467;48.142;11.616;2022-11-11T00:45:46;3.08;;;2.88;;
4903;SDS011;2467;48.142;11.616;2022-11-11T00:46:17;3.60;;;3.30;;
4903;SDS011;2467;48.142;11.616;2022-11-11T00:47:13;3.13;;;2.92;;
4903;SDS011;2467;48.142;11.616;2022-11-11T00:48:04;2.80;;;2.20;;
4903;SDS011;2467;48.142;11.616;2022-11-11T00:48:55;2.70;;;2.50;;
4903;SDS011;2467;48.142;11.616;2022-11-11T00:49:46;3.40;;;3.10;;
4903;SDS011;2467;48.142;11.616;2022-11-11T00:50:36;3.25;;;2.95;;
4903;SDS011;2467;48.142;11.616;2022-11-11T00:51:27;2.63;;;2.42;;
4903;SDS011;2467;48.142;11.616;2022-11-11T00:52:00;2.65;;;1.92;;
4903;SDS011;2467;48.142;11.616;2022-11-11T00:52:32;4.47;;;2.67;;
4903;SDS011;2467;48.142;11.616;2022-11-11T00:53:07;2.92;;;2.72;;
4903;SDS011;2467;48.142;11.616;2022-11-11T00:53:40;3.10;;;2.90;;
4903;SDS011;2467;48.142;11.616;2022-11-11T00:54:13;3.95;;;3.30;;
4903;SDS011;2467;48.142;11.616;2022-11-11T00:54:45;3.30;;;3.10;;
4903;SDS011;2467;48.142;11.616;2022-11-11T00:55:17;3.08;;;2.78;;
4903;SDS011;2467;48.142;11.616;2022-11-11T00:55:49;3.45;;;2.58;;
4903;SDS011;2467;48.142;11.616;2022-11-11T00:56:22;2.95;;;2.75;;
4903;SDS011;2467;48.142;11.616;2022-11-11T00:56:54;5.50;;;2.63;;
4903;SDS011;2467;48.142;11.616;2022-11-11T00:57:26;3.90;;;2.85;;
4903;SDS011;2467;48.142;11.616;2022-11-11T00:57:59;3.25;;;2.95;;
4903;SDS011;2467;48.142;11.616;2022-11-11T00:58:32;2.60;;;2.40;;
4903;SDS011;2467;48.142;11.616;2022-11-11T00:59:04;4.03;;;2.65;;
4903;SDS011;2467;48.142;11.616;2022-11-11T00:59:38;2.88;;;2.67;;
4903;SDS011;2467;48.142;11.616;2022-11-11T01:00:11;2.67;;;2.50;;
4903;SDS011;2467;48.142;11.616;2022-11-11T01:00:44;3.08;;;2.88;;
4903;SDS011;2467;48.142;11.616;2022-11-11T01:01:17;4.20;;;3.80;;
4903;SDS011;2467;48.142;11.616;2022-11-11T01:01:49;2.65;;;2.33;;
4903;SDS011;2467;48.142;11.616;2022-11-11T01:02:21;2.90;;;2.70;;
4903;SDS011;2467;48.142;11.616;2022-11-11T01:02:54;2.67;;;2.47;;
4903;SDS011;2467;48.142;11.616;2022-11-11T01:03:27;3.20;;;2.67;;
4903;SDS011;2467;48.142;11.616;2022-11-11T01:03:59;2.65;;;2.45;;
4903;SDS011;2467;48.142;11.616;2022-11-11T01:04:31;4.50;;;2.90;;
4903;SDS011;2467;48.142;11.616;2022-11-11T01:05:03;2.80;;;2.60;;
4903;SDS011;2467;48.142;11.616;2022-11-11T01:05:36;3.33;;;3.03;;
4903;SDS011;2467;48.142;11.616;2022-11-11T01:06:10;3.58;;;2.40;;
4903;SDS011;2467;48.142;11.616;2022-11-11T01:06:43;2.75;;;2.55;;
4903;SDS011;2467;48.142;11.616;2022-11-11T01:07:15;3.55;;;3.15;;
4903;SDS011;2467;48.142;11.616;2022-11-11T01:07:48;3.08;;;2.78;;
4903;SDS011;2467;48.142;11.616;2022-11-11T01:08:23;3.25;;;2.85;;
4903;SDS011;2467;48.142;11.616;2022-11-11T01:08:56;2.63;;;2.42;;
4903;SDS011;2467;48.142;11.616;2022-11-11T01:09:29;4.03;;;2.50;;
4903;SDS011;2467;48.142;11.616;2022-11-11T01:10:01;2.55;;;2.35;;
4903;SDS011;2467;48.142;11.616;2022-11-11T01:10:32;3.35;;;2.75;;
4903;SDS011;2467;48.142;11.616;2022-11-11T01:11:14;2.65;;;2.45;;
4903;SDS011;2467;48.142;11.616;2022-11-11T01:11:47;4.53;;;2.30;;
4903;SDS011;2467;48.142;11.616;2022-11-11T01:12:19;2.58;;;2.38;;
4903;SDS011;2467;48.142;11.616;2022-11-11T01:12:52;2.42;;;2.22;;
4903;SDS011;2467;48.142;11.616;2022-11-11T01:13:43;6.95;;;2.67;;
4903;SDS011;2467;48.142;11.616;2022-11-11T01:14:16;3.00;;;2.50;;
4903;SDS011;2467;48.142;11.616;2022-11-11T01:14:48;3.15;;;2.40;;
4903;SDS011;2467;48.142;11.616;2022-11-11T01:15:20;2.50;;;2.30;;
4903;SDS011;2467;48.142;11.616;2022-11-11T01:15:56;2.90;;;2.70;;
4903;SDS011;2467;48.142;11.616;2022-11-11T01:16:29;2.72;;;2.53;;
4903;SDS011;2467;48.142;11.616;2022-11-11T01:17:02;2.53;;;2.15;;
4903;SDS011;2467;48.142;11.616;2022-11-11T01:17:34;3.30;;;2.50;;
4903;SDS011;2467;48.142;11.616;2022-11-11T01:18:07;2.95;;;2.75;;
4903;SDS011;2467;48.142;11.616;2022-11-11T01:18:39;4.28;;;2.60;;
4903;SDS011;2467;48.142;11.616;2022-11-11T01:19:12;2.50;;;2.30;;
4903;SDS011;2467;48.142;11.616;2022-11-11T01:19:44;2.70;;;2.50;;
4903;SDS011;2467;48.142;11.616;2022-11-11T01:20:16;6.93;;;2.42;;
4903;SDS011;2467;48.142;11.616;2022-11-11T01:20:56;2.20;;;2.00;;
4903;SDS011;2467;48.142;11.616;2022-11-11T01:21:30;2.10;;;2.00;;
4903;SDS011;2467;48.142;11.616;2022-11-11T01:22:02;3.22;;;2.92;;
4903;SDS011;2467;48.142;11.616;2022-11-11T01:22:34;2.20;;;2.10;;
4903;SDS011;2467;48.142;11.616;2022-11-11T01:23:07;3.45;;;2.35;;
4903;SDS011;2467;48.142;11.616;2022-11-11T01:23:41;2.78;;;2.58;;
4903;SDS011;2467;48.142;11.616;2022-11-11T01:24:15;7.47;;;2.40;;
4903;SDS011;2467;48.142;11.616;2022-11-11T01:24:48;4.18;;;2.30;;
4903;SDS011;2467;48.142;11.616;2022-11-11T01:25:20;3.22;;;2.92;;
4903;SDS011;2467;48.142;11.616;2022-11-11T01:25:52;2.30;;;2.10;;
4903;SDS011;2467;48.142;11.616;2022-11-11T01:26:25;3.75;;;2.75;;
4903;SDS011;2467;48.142;11.616;2022-11-11T01:27:02;2.40;;;2.20;;
4903;SDS011;2467;48.142;11.616;2022-11-11T01:27:34;3.20;;;2.90;;
4903;SDS011;2467;48.142;11.616;2022-11-11T01:28:06;2.60;;;2.40;;
4903;SDS011;2467;48.142;11.616;2022-11-11T01:28:39;6.15;;;3.00;;
4903;SDS011;2467;48.142;11.616;2022-11-11T01:29:13;1.90;;;1.80;;
4903;SDS011;2467;48.142;11.616;2022-11-11T01:29:46;2.50;;;2.30;;
4903;SDS011;2467;48.142;11.616;2022-11-11T01:30:18;2.47;;;2.28;;
4903;SDS011;2467;48.142;11.616;2022-11-11T01:30:50;2.50;;;2.30;;
4903;SDS011;2467;48.142;11.616;2022-11-11T01:31:22;4.22;;;3.15;;
4903;SDS011;2467;48.142;11.616;2022-11-11T01:31:56;2.63;;;2.42;;
4903;SDS011;2467;48.142;11.616;2022-11-11T01:32:28;2.60;;;2.40;;
4903;SDS011;2467;48.142;11.616;2022-11-11T01:33:00;2.70;;;2.50;;
4903;SDS011;2467;48.142;11.616;2022-11-11T01:33:33;2.50;;;2.30;;
4903;SDS011;2467;48.142;11.616;2022-11-11T01:34:06;2.45;;;2.25;;
4903;SDS011;2467;48.142;11.616;2022-11-11T01:34:38;2.20;;;2.00;;
4903;SDS011;2467;48.142;11.616;2022-11-11T01:35:10;3.60;;;2.30;;
4903;SDS011;2467;48.142;11.616;2022-11-11T01:35:42;2.35;;;2.15;;
4903;SDS011;2467;48.142;11.616;2022-11-11T01:36:15;2.70;;;2.42;;
4903;SDS011;2467;48.142;11.616;2022-11-11T01:36:49;5.07;;;2.95;;
4903;SDS011;2467;48.142;11.616;2022-11-11T01:37:20;2.78;;;2.58;;
4903;SDS011;2467;48.142;11.616;2022-11-11T01:37:53;2.67;;;2.40;;
4903;SDS011;2467;48.142;11.616;2022-11-11T01:38:27;1.90;;;1.80;;
4903;SDS011;2467;48.142;11.616;2022-11-11T01:38:59;2.30;;;2.10;;
4903;SDS011;2467;48.142;11.616;2022-11-11T01:39:32;2.38;;;2.17;;
4903;SDS011;2467;48.142;11.616;2022-11-11T01:40:05;2.13;;;1.95;;
4903;SDS011;2467;48.142;11.616;2022-11-11T01:40:41;7.50;;;2.30;;
4903;SDS011;2467;48.142;11.616;2022-11-11T01:41:15;2.50;;;2.40;;
4903;SDS011;2467;48.142;11.616;2022-11-11T01:42:04;3.65;;;3.35;;
4903;SDS011;2467;48.142;11.616;2022-11-11T01:42:47;3.03;;;2.70;;
4903;SDS011;2467;48.142;11.616;2022-11-11T01:43:20;2.40;;;2.20;;
4903;SDS011;2467;48.142;11.616;2022-11-11T01:43:54;3.13;;;2.60;;
4903;SDS011;2467;48.142;11.616;2022-11-11T01:44:43;2.30;;;2.10;;
4903;SDS011;2467;48.142;11.616;2022-11-11T01:46:17;2.42;;;2.20;;
4903;SDS011;2467;48.142;11.616;2022-11-11T01:46:56;2.40;;;2.20;;
4903;SDS011;2467;48.142;11.616;2022-11-11T01:47:30;3.13;;;2.50;;
4903;SDS011;2467;48.142;11.616;2022-11-11T01:48:44;2.10;;;1.90;;
4903;SDS011;2467;48.142;11.616;2022-11-11T01:49:40;2.40;;;2.20;;
4903;SDS011;2467;48.142;11.616;2022-11-11T01:50:18;2.50;;;2.30;;
4903;SDS011;2467;48.142;11.616;2022-11-11T01:50:51;2.28;;;2.00;;
4903;SDS011;2467;48.142;11.616;2022-11-11T01:51:27;2.85;;;2.13;;
4903;SDS011;2467;48.142;11.616;2022-11-11T01:52:08;2.50;;;2.25;;
4903;SDS011;2467;48.142;11.616;2022-11-11T01:52:45;2.20;;;1.90;;
4903;SDS011;2467;48.142;11.616;2022-11-11T01:53:17;2.25;;;2.05;;
4903;SDS011;2467;48.142;11.616;2022-11-11T01:53:50;2.40;;;2.20;;
4903;SDS011;2467;48.142;11.616;2022-11-11T01:54:28;2.58;;;2.38;;
4903;SDS011;2467;48.142;11.616;2022-11-11T01:55:06;2.22;;;2.05;;
4903;SDS011;2467;48.142;11.616;2022-11-11T01:55:42;2.30;;;2.10;;
4903;SDS011;2467;48.142;11.616;2022-11-11T01:56:14;2.38;;;2.17;;
4903;SDS011;2467;48.142;11.616;2022-11-11T01:56:50;2.63;;;2.28;;
4903;SDS011;2467;48.142;11.616;2022-11-11T01:57:27;2.65;;;2.45;;
4903;SDS011;2467;48.142;11.616;2022-11-11T01:58:08;3.03;;;2.80;;
4903;SDS011;2467;48.142;11.616;2022-11-11T01:58:45;2.35;;;2.20;;
4903;SDS011;2467;48.142;11.616;2022-11-11T01:59:17;2.33;;;2.13;;
4903;SDS011;2467;48.142;11.616;2022-11-11T01:59:51;2.35;;;2.22;;
4903;SDS011;2467;48.142;11.616;2022-11-11T02:00:30;2.55;;;2.15;;
4903;SDS011;2467;48.142;11.616;2022-11-11T02:01:03;2.30;;;2.10;;
4903;SDS011;2467;48.142;11.616;2022-11-11T02:01:36;2.25;;;2.05;;
4903;SDS011;2467;48.142;11.616;2022-11-11T02:02:11;4.57;;;2.40;;
4903;SDS011;2467;48.142;11.616;2022-11-11T02:02:49;3.58;;;2.20;;
4903;SDS011;2467;48.142;11.616;2022-11-11T02:03:25;2.28;;;2.17;;
4903;SDS011;2467;48.142;11.616;2022-11-11T02:04:00;2.20;;;1.83;;
4903;SDS011;2467;48.142;11.616;2022-11-11T02:04:53;2.85;;;2.00;;
4903;SDS011;2467;48.142;11.616;2022-11-11T02:05:44;2.40;;;2.20;;
4903;SDS011;2467;48.142;11.616;2022-11-11T02:06:16;2.22;;;2.10;;
4903;SDS011;2467;48.142;11.616;2022-11-11T02:06:50;2.30;;;2.10;;
4903;SDS011;2467;48.142;11.616;2022-11-11T02:07:24;1.95;;;1.85;;
4903;SDS011;2467;48.142;11.616;2022-11-11T02:07:58;2.55;;;2.35;;
4903;SDS011;2467;48.142;11.616;2022-11-11T02:08:34;2.47;;;2.35;;
4903;SDS011;2467;48.142;11.616;2022-11-11T02:09:07;1.83;;;1.73;;
4903;SDS011;2467;48.142;11.616;2022-11-11T02:09:41;3.20;;;2.47;;
4903;SDS011;2467;48.142;11.616;2022-11-11T02:10:17;2.70;;;2.50;;
4903;SDS011;2467;48.142;11.616;2022-11-11T02:10:52;1.95;;;1.80;;
4903;SDS011;2467;48.142;11.616;2022-11-11T02:11:24;2.15;;;2.05;;
4903;SDS011;2467;48.142;11.616;2022-11-11T02:12:16;5.40;;;2.50;;
4903;SDS011;2467;48.142;11.616;2022-11-11T02:13:08;2.50;;;2.30;;
4903;SDS011;2467;48.142;11.616;2022-11-11T02:14:02;2.28;;;2.17;;
4903;SDS011;2467;48.142;11.616;2022-11-11T02:14:56;2.20;;;2.10;;
4903;SDS011;2467;48.142;11.616;2022-11-11T02:15:30;2.10;;;1.90;;
4903;SDS011;2467;48.142;11.616;2022-11-11T02:16:02;2.20;;;2.00;;
4903;SDS011;2467;48.142;11.616;2022-11-11T02:16:35;2.58;;;2.38;;
4903;SDS011;2467;48.142;11.616;2022-11-11T02:17:08;2.17;;;2.05;;
4903;SDS011;2467;48.142;11.616;2022-11-11T02:17:44;2.58;;;2.38;;
4903;SDS011;2467;48.142;11.616;2022-11-11T02:18:19;2.58;;;2.10;;
4903;SDS011;2467;48.142;11.616;2022-11-11T02:18:51;2.60;;;2.40;;
4903;SDS011;2467;48.142;11.616;2022-11-11T02:19:25;2.35;;;2.15;;
4903;SDS011;2467;48.142;11.616;2022-11-11T02:20:06;2.20;;;2.00;;
4903;SDS011;2467;48.142;11.616;2022-11-11T02:20:42;3.13;;;2.92;;
4903;SDS011;2467;48.142;11.616;2022-11-11T02:21:19;2.20;;;2.00;;
4903;SDS011;2467;48.142;11.616;2022-11-11T02:21:57;2.38;;;2.17;;
4903;SDS011;2467;48.142;11.616;2022-11-11T02:22:33;2.33;;;2.13;;
4903;SDS011;2467;48.142;11.616;2022-11-11T02:23:12;2.25;;;2.15;;
4903;SDS011;2467;48.142;11.616;2022-11-11T02:23:56;2.92;;;2.65;;
4903;SDS011;2467;48.142;11.616;2022-11-11T02:24:33;2.22;;;2.13;;
4903;SDS011;2467;48.142;11.616;2022-11-11T02:25:06;2.47;;;2.28;;
4903;SDS011;2467;48.142;11.616;2022-11-11T02:25:42;2.13;;;1.80;;
4903;SDS011;2467;48.142;11.616;2022-11-11T02:26:18;2.50;;;2.30;;
4903;SDS011;2467;48.142;11.616;2022-11-11T02:26:52;2.65;;;2.45;;
4903;SDS011;2467;48.142;11.616;2022-11-11T02:27:29;2.58;;;2.20;;
4903;SDS011;2467;48.142;11.616;2022-11-11T02:28:02;2.72;;;2.53;;
4903;SDS011;2467;48.142;11.616;2022-11-11T02:28:37;2.20;;;2.10;;
4903;SDS011;2467;48.142;11.616;2022-11-11T02:29:12;2.63;;;2.40;;
4903;SDS011;2467;48.142;11.616;2022-11-11T02:29:46;2.83;;;2.28;;
4903;SDS011;2467;48.142;11.616;2022-11-11T02:30:20;2.83;;;2.17;;
4903;SDS011;2467;48.142;11.616;2022-11-11T02:30:53;2.53;;;1.92;;
4903;SDS011;2467;48.142;11.616;2022-11-11T02:31:25;2.38;;;2.17;;
4903;SDS011;2467;48.142;11.616;2022-11-11T02:31:59;2.58;;;2.33;;
4903;SDS011;2467;48.142;11.616;2022-11-11T02:32:31;2.00;;;1.90;;
4903;SDS011;2467;48.142;11.616;2022-11-11T02:33:04;2.30;;;2.10;;
4903;SDS011;2467;48.142;11.616;2022-11-11T02:33:39;2.38;;;2.17;;
4903;SDS011;2467;48.142;11.616;2022-11-11T02:34:11;2.78;;;2.53;;
4903;SDS011;2467;48.142;11.616;2022-11-11T02:34:43;2.65;;;2.45;;
4903;SDS011;2467;48.142;11.616;2022-11-11T02:35:17;2.35;;;2.15;;
4903;SDS011;2467;48.142;11.616;2022-11-11T02:35:51;4.28;;;2.45;;
4903;SDS011;2467;48.142;11.616;2022-11-11T02:36:26;2.22;;;2.00;;
4903;SDS011;2467;48.142;11.616;2022-11-11T02:36:58;2.60;;;2.40;;
4903;SDS011;2467;48.142;11.616;2022-11-11T02:37:33;2.50;;;2.15;;
4903;SDS011;2467;48.142;11.616;2022-11-11T02:38:06;2.50;;;2.30;;
4903;SDS011;2467;48.142;11.616;2022-11-11T02:38:39;2.30;;;2.05;;
4903;SDS011;2467;48.142;11.616;2022-11-11T02:39:14;2.58;;;2.38;;
4903;SDS011;2467;48.142;11.616;2022-11-11T02:39:46;4.03;;;2.60;;
4903;SDS011;2467;48.142;11.616;2022-11-11T02:40:34;2.13;;;2.03;;
4903;SDS011;2467;48.142;11.616;2022-11-11T02:41:09;2.92;;;2.63;;
4903;SDS011;2467;48.142;11.616;2022-11-11T02:41:59;2.22;;;2.00;;
4903;SDS011;2467;48.142;11.616;2022-11-11T02:42:35;3.42;;;2.35;;
4903;SDS011;2467;48.142;11.616;2022-11-11T02:43:07;3.28;;;2.97;;
4903;SDS011;2467;48.142;11.616;2022-11-11T02:43:40;2.58;;;2.38;;
4903;SDS011;2467;48.142;11.616;2022-11-11T02:44:12;6.60;;;2.60;;
4903;SDS011;2467;48.142;11.616;2022-11-11T02:44:44;2.90;;;2.70;;
4903;SDS011;2467;48.142;11.616;2022-11-11T02:45:17;10.52;;;8.27;;
4903;SDS011;2467;48.142;11.616;2022-11-11T02:45:49;6.40;;;5.75;;
4903;SDS011;2467;48.142;11.616;2022-11-11T02:46:21;14.93;;;10.45;;
4903;SDS011;2467;48.142;11.616;2022-11-11T02:46:54;15.93;;;13.88;;
4903;SDS011;2467;48.142;11.616;2022-11-11T02:47:26;15.05;;;11.70;;
4903;SDS011;2467;48.142;11.616;2022-11-11T02:47:58;9.25;;;7.60;;
4903;SDS011;2467;48.142;11.616;2022-11-11T02:48:31;19.05;;;9.93;;
4903;SDS011;2467;48.142;11.616;2022-11-11T02:49:03;14.00;;;11.50;;
4903;SDS011;2467;48.142;11.616;2022-11-11T02:49:35;12.10;;;10.57;;
4903;SDS011;2467;48.142;11.616;2022-11-11T02:50:07;16.88;;;13.85;;
4903;SDS011;2467;48.142;11.616;2022-11-11T02:50:40;15.88;;;14.00;;
4903;SDS011;2467;48.142;11.616;2022-11-11T02:51:11;16.58;;;14.90;;
4903;SDS011;2467;48.142;11.616;2022-11-11T02:51:44;13.15;;;10.18;;
4903;SDS011;2467;48.142;11.616;2022-11-11T02:52:18;20.83;;;16.90;;
4903;SDS011;2467;48.142;11.616;2022-11-11T02:52:49;18.08;;;14.18;;
4903;SDS011;2467;48.142;11.616;2022-11-11T02:53:22;18.20;;;15.05;;
4903;SDS011;2467;48.142;11.616;2022-11-11T02:53:55;19.65;;;15.18;;
4903;SDS011;2467;48.142;11.616;2022-11-11T02:54:30;14.77;;;9.85;;
4903;SDS011;2467;48.142;11.616;2022-11-11T02:55:04;7.55;;;6.30;;
4903;SDS011;2467;48.142;11.616;2022-11-11T02:55:36;5.68;;;4.88;;
4903;SDS011;2467;48.142;11.616;2022-11-11T02:56:08;5.18;;;4.68;;
4903;SDS011;2467;48.142;11.616;2022-11-11T02:56:40;6.95;;;3.90;;
4903;SDS011;2467;48.142;11.616;2022-11-11T02:57:31;4.93;;;3.88;;
4903;SDS011;2467;48.142;11.616;2022-11-11T02:58:03;4.38;;;3.97;;
4903;SDS011;2467;48.142;11.616;2022-11-11T02:58:36;3.95;;;3.22;;
4903;SDS011;2467;48.142;11.616;2022-11-11T02:59:07;3.85;;;3.45;;
4903;SDS011;2467;48.142;11.616;2022-11-11T02:59:40;3.28;;;3.05;;
4903;SDS011;2467;48.142;11.616;2022-11-11T03:00:13;3.88;;;3.55;;
4903;SDS011;2467;48.142;11.616;2022-11-11T03:00:46;3.72;;;3.40;;
4903;SDS011;2467;48.142;11.616;2022-11-11T03:01:18;3.97;;;3.67;;
4903;SDS011;2467;48.142;11.616;2022-11-11T03:01:54;3.60;;;3.10;;
4903;SDS011;2467;48.142;11.616;2022-11-11T03:02:26;3.92;;;3.42;;
4903;SDS011;2467;48.142;11.616;2022-11-11T03:03:00;3.80;;;3.47;;
4903;SDS011;2467;48.142;11.616;2022-11-11T03:03:32;3.33;;;3.03;;
4903;SDS011;2467;48.142;11.616;2022-11-11T03:04:04;3.75;;;3.03;;
4903;SDS011;2467;48.142;11.616;2022-11-11T03:04:36;3.17;;;2.83;;
4903;SDS011;2467;48.142;11.616;2022-11-11T03:05:09;3.40;;;3.10;;
4903;SDS011;2467;48.142;11.616;2022-11-11T03:05:41;4.10;;;3.80;;
4903;SDS011;2467;48.142;11.616;2022-11-11T03:06:13;3.80;;;3.40;;
4903;SDS011;2467;48.142;11.616;2022-11-11T03:06:45;3.83;;;3.42;;
4903;SDS011;2467;48.142;11.616;2022-11-11T03:07:20;4.13;;;3.72;;
4903;SDS011;2467;48.142;11.616;2022-11-11T03:07:53;6.00;;;3.10;;
4903;SDS011;2467;48.142;11.616;2022-11-11T03:08:25;3.50;;;3.20;;
4903;SDS011;2467;48.142;11.616;2022-11-11T03:08:58;3.03;;;2.80;;
4903;SDS011;2467;48.142;11.616;2022-11-11T03:09:31;3.42;;;3.13;;
4903;SDS011;2467;48.142;11.616;2022-11-11T03:10:03;5.65;;;3.50;;
4903;SDS011;2467;48.142;11.616;2022-11-11T03:10:36;4.03;;;3.70;;
4903;SDS011;2467;48.142;11.616;2022-11-11T03:11:08;4.57;;;3.85;;
4903;SDS011;2467;48.142;11.616;2022-11-11T03:11:40;3.90;;;3.60;;
4903;SDS011;2467;48.142;11.616;2022-11-11T03:12:13;3.50;;;3.20;;
4903;SDS011;2467;48.142;11.616;2022-11-11T03:12:46;3.95;;;3.40;;
4903;SDS011;2467;48.142;11.616;2022-11-11T03:13:18;3.85;;;3.22;;
4903;SDS011;2467;48.142;11.616;2022-11-11T03:13:50;3.40;;;3.20;;
4903;SDS011;2467;48.142;11.616;2022-11-11T03:14:23;3.30;;;3.10;;
4903;SDS011;2467;48.142;11.616;2022-11-11T03:14:54;4.68;;;4.15;;
4903;SDS011;2467;48.142;11.616;2022-11-11T03:15:27;3.45;;;3.20;;
4903;SDS011;2467;48.142;11.616;2022-11-11T03:15:59;3.70;;;3.40;;
4903;SDS011;2467;48.142;11.616;2022-11-11T03:16:31;4.80;;;3.30;;
4903;SDS011;2467;48.142;11.616;2022-11-11T03:17:24;3.70;;;3.40;;
4903;SDS011;2467;48.142;11.616;2022-11-11T03:18:10;3.08;;;2.80;;
4903;SDS011;2467;48.142;11.616;2022-11-11T03:18:42;4.20;;;3.80;;
4903;SDS011;2467;48.142;11.616;2022-11-11T03:19:15;7.30;;;3.58;;
4903;SDS011;2467;48.142;11.616;2022-11-11T03:19:47;3.58;;;3.28;;
4903;SDS011;2467;48.142;11.616;2022-11-11T03:20:19;4.20;;;3.80;;
4903;SDS011;2467;48.142;11.616;2022-11-11T03:21:10;3.47;;;2.88;;
4903;SDS011;2467;48.142;11.616;2022-11-11T03:22:03;3.75;;;3.38;;
4903;SDS011;2467;48.142;11.616;2022-11-11T03:22:59;3.60;;;3.03;;
4903;SDS011;2467;48.142;11.616;2022-11-11T03:23:32;4.72;;;3.33;;
4903;SDS011;2467;48.142;11.616;2022-11-11T03:24:05;5.55;;;3.97;;
4903;SDS011;2467;48.142;11.616;2022-11-11T03:24:38;3.80;;;3.50;;
4903;SDS011;2467;48.142;11.616;2022-11-11T03:25:28;2.75;;;2.55;;
4903;SDS011;2467;48.142;11.616;2022-11-11T03:26:09;4.75;;;3.40;;
4903;SDS011;2467;48.142;11.616;2022-11-11T03:26:42;3.58;;;3.28;;
4903;SDS011;2467;48.142;11.616;2022-11-11T03:27:14;3.95;;;3.30;;
4903;SDS011;2467;48.142;11.616;2022-11-11T03:27:46;3.70;;;3.40;;
4903;SDS011;2467;48.142;11.616;2022-11-11T03:28:18;4.30;;;3.38;;
4903;SDS011;2467;48.142;11.616;2022-11-11T03:28:52;4.10;;;3.55;;
4903;SDS011;2467;48.142;11.616;2022-11-11T03:29:24;4.10;;;3.25;;
4903;SDS011;2467;48.142;11.616;2022-11-11T03:29:56;3.85;;;3.30;;
4903;SDS011;2467;48.142;11.616;2022-11-11T03:30:27;7.75;;;3.60;;
4903;SDS011;2467;48.142;11.616;2022-11-11T03:31:00;3.90;;;3.50;;
4903;SDS011;2467;48.142;11.616;2022-11-11T03:31:34;2.92;;;2.72;;
4903;SDS011;2467;48.142;11.616;2022-11-11T03:32:07;3.42;;;3.22;;
4903;SDS011;2467;48.142;11.616;2022-11-11T03:32:42;5.97;;;3.95;;
4903;SDS011;2467;48.142;11.616;2022-11-11T03:33:14;3.80;;;3.50;;
4903;SDS011;2467;48.142;11.616;2022-11-11T03:33:46;3.50;;;3.25;;
4903;SDS011;2467;48.142;11.616;2022-11-11T03:34:19;4.90;;;4.32;;
4903;SDS011;2467;48.142;11.616;2022-11-11T03:34:51;4.10;;;3.80;;
4903;SDS011;2467;48.142;11.616;2022-11-11T03:35:23;3.33;;;3.13;;
4903;SDS011;2467;48.142;11.616;2022-11-11T03:35:56;3.63;;;3.33;;
4903;SDS011;2467;48.142;11.616;2022-11-11T03:36:27;5.10;;;3.88;;
4903;SDS011;2467;48.142;11.616;2022-11-11T03:37:19;3.90;;;2.60;;
4903;SDS011;2467;48.142;11.616;2022-11-11T03:38:15;4.30;;;3.35;;
4903;SDS011;2467;48.142;11.616;2022-11-11T03:38:53;3.47;;;3.13;;